sensor_id;sensor_type;location;lat;lon;timestamp;pressure;altitude;pressure_sealevel;temperature;humidity
52927;BME280;40783;49.710;8.842;2023-04-04T00:01:48;100117.34;;;0.69;68.69
52927;BME280;40783;49.710;8.842;2023-04-04T00:04:13;100113.88;;;0.69;67.80
52927;BME280;40783;49.710;8.842;2023-04-04T00:06:41;100114.84;;;0.66;69.89
52927;BME280;40783;49.710;8.842;2023-04-04T00:09:11;100110.50;;;0.65;69.23
52927;BME280;40783;49.710;8.842;2023-04-04T00:11:40;100111.00;;;0.73;71.24
52927;BME280;40783;49.710;8.842;2023-04-04T00:14:06;100104.81;;;0.74;68.56
52927;BME280;40783;49.710;8.842;2023-04-04T00:16:32;100098.13;;;0.67;67.91
52927;BME280;40783;49.710;8.842;2023-04-04T00:18:58;100103.41;;;0.67;70.02
52927;BME280;40783;49.710;8.842;2023-04-04T00:21:25;100102.59;;;0.65;70.19
52927;BME280;40783;49.710;8.842;2023-04-04T00:23:52;100101.41;;;0.72;69.76
52927;BME280;40783;49.710;8.842;2023-04-04T00:26:18;100093.00;;;0.64;68.71
52927;BME280;40783;49.710;8.842;2023-04-04T00:28:47;100097.34;;;0.65;69.87
52927;BME280;40783;49.710;8.842;2023-04-04T00:31:13;100096.97;;;0.54;69.18
52927;BME280;40783;49.710;8.842;2023-04-04T00:33:41;100104.13;;;0.52;70.97
52927;BME280;40783;49.710;8.842;2023-04-04T00:36:09;100099.13;;;0.46;70.91
52927;BME280;40783;49.710;8.842;2023-04-04T00:38:35;100096.50;;;0.46;70.50
52927;BME280;40783;49.710;8.842;2023-04-04T00:41:00;100088.47;;;0.49;70.67
52927;BME280;40783;49.710;8.842;2023-04-04T00:43:28;100094.34;;;0.54;68.91
52927;BME280;40783;49.710;8.842;2023-04-04T00:45:53;100091.28;;;0.44;68.15
52927;BME280;40783;49.710;8.842;2023-04-04T00:48:19;100082.97;;;0.34;68.75
52927;BME280;40783;49.710;8.842;2023-04-04T00:50:45;100078.91;;;0.27;69.16
52927;BME280;40783;49.710;8.842;2023-04-04T00:53:12;100082.59;;;0.23;70.13
52927;BME280;40783;49.710;8.842;2023-04-04T00:55:38;100081.03;;;0.19;69.63
52927;BME280;40783;49.710;8.842;2023-04-04T00:58:04;100077.22;;;0.26;71.08
52927;BME280;40783;49.710;8.842;2023-04-04T01:00:32;100077.56;;;0.37;71.57
52927;BME280;40783;49.710;8.842;2023-04-04T01:03:00;100073.78;;;0.43;72.16
52927;BME280;40783;49.710;8.842;2023-04-04T01:05:34;100086.63;;;0.51;72.14
52927;BME280;40783;49.710;8.842;2023-04-04T01:08:02;100074.38;;;0.50;70.27
52927;BME280;40783;49.710;8.842;2023-04-04T01:10:29;100074.25;;;0.53;71.95
52927;BME280;40783;49.710;8.842;2023-04-04T01:12:54;100081.63;;;0.44;70.47
52927;BME280;40783;49.710;8.842;2023-04-04T01:15:20;100076.66;;;0.38;71.42
52927;BME280;40783;49.710;8.842;2023-04-04T01:17:49;100083.34;;;0.46;73.31
52927;BME280;40783;49.710;8.842;2023-04-04T01:20:26;100083.75;;;0.36;70.97
52927;BME280;40783;49.710;8.842;2023-04-04T01:22:55;100078.50;;;0.36;72.69
52927;BME280;40783;49.710;8.842;2023-04-04T01:25:32;100078.63;;;0.33;71.73
52927;BME280;40783;49.710;8.842;2023-04-04T01:27:59;100071.81;;;0.29;72.63
52927;BME280;40783;49.710;8.842;2023-04-04T01:30:26;100068.25;;;0.30;73.27
52927;BME280;40783;49.710;8.842;2023-04-04T01:32:59;100064.69;;;0.31;73.53
52927;BME280;40783;49.710;8.842;2023-04-04T01:35:42;100067.84;;;0.39;73.47
52927;BME280;40783;49.710;8.842;2023-04-04T01:38:26;100063.28;;;0.43;73.79
52927;BME280;40783;49.710;8.842;2023-04-04T01:41:00;100058.75;;;0.47;74.00
52927;BME280;40783;49.710;8.842;2023-04-04T01:43:28;100056.16;;;0.45;74.34
52927;BME280;40783;49.710;8.842;2023-04-04T01:45:58;100061.00;;;0.35;71.99
52927;BME280;40783;49.710;8.842;2023-04-04T01:48:25;100057.72;;;0.30;74.64
52927;BME280;40783;49.710;8.842;2023-04-04T01:50:51;100056.81;;;0.31;74.85
52927;BME280;40783;49.710;8.842;2023-04-04T01:53:17;100056.03;;;0.29;75.35
52927;BME280;40783;49.710;8.842;2023-04-04T01:55:42;100056.44;;;0.20;76.57
52927;BME280;40783;49.710;8.842;2023-04-04T01:58:12;100062.34;;;0.25;75.88
52927;BME280;40783;49.710;8.842;2023-04-04T02:00:37;100054.72;;;0.19;75.76
52927;BME280;40783;49.710;8.842;2023-04-04T02:03:05;100057.25;;;0.01;75.56
52927;BME280;40783;49.710;8.842;2023-04-04T02:05:30;100049.38;;;0.01;76.37
52927;BME280;40783;49.710;8.842;2023-04-04T02:07:56;100056.06;;;0.08;76.53
52927;BME280;40783;49.710;8.842;2023-04-04T02:10:23;100066.09;;;0.00;76.60
52927;BME280;40783;49.710;8.842;2023-04-04T02:12:54;100055.13;;;0.09;77.17
52927;BME280;40783;49.710;8.842;2023-04-04T02:15:19;100061.41;;;0.07;77.35
52927;BME280;40783;49.710;8.842;2023-04-04T02:17:48;100056.97;;;0.07;77.11
52927;BME280;40783;49.710;8.842;2023-04-04T02:20:16;100059.34;;;0.13;76.29
52927;BME280;40783;49.710;8.842;2023-04-04T02:22:49;100069.06;;;0.11;76.93
52927;BME280;40783;49.710;8.842;2023-04-04T02:25:15;100062.09;;;0.10;76.22
52927;BME280;40783;49.710;8.842;2023-04-04T02:27:41;100055.41;;;0.03;76.54
52927;BME280;40783;49.710;8.842;2023-04-04T02:30:06;100060.53;;;0.06;77.06
52927;BME280;40783;49.710;8.842;2023-04-04T02:32:34;100062.69;;;-0.02;77.19
52927;BME280;40783;49.710;8.842;2023-04-04T02:35:02;100063.22;;;-0.14;78.30
52927;BME280;40783;49.710;8.842;2023-04-04T02:37:28;100069.03;;;-0.08;78.24
52927;BME280;40783;49.710;8.842;2023-04-04T02:39:54;100070.44;;;-0.20;78.92
52927;BME280;40783;49.710;8.842;2023-04-04T02:42:22;100062.47;;;-0.18;78.81
52927;BME280;40783;49.710;8.842;2023-04-04T02:44:49;100067.72;;;-0.18;79.46
52927;BME280;40783;49.710;8.842;2023-04-04T02:47:17;100060.06;;;-0.23;79.51
52927;BME280;40783;49.710;8.842;2023-04-04T02:49:42;100058.63;;;-0.30;80.04
52927;BME280;40783;49.710;8.842;2023-04-04T02:52:07;100063.22;;;-0.56;80.61
52927;BME280;40783;49.710;8.842;2023-04-04T02:54:35;100056.91;;;-0.52;81.43
52927;BME280;40783;49.710;8.842;2023-04-04T02:57:00;100055.59;;;-0.41;80.48
52927;BME280;40783;49.710;8.842;2023-04-04T02:59:26;100059.00;;;-0.39;80.06
52927;BME280;40783;49.710;8.842;2023-04-04T03:01:53;100056.66;;;-0.66;80.66
52927;BME280;40783;49.710;8.842;2023-04-04T03:04:21;100052.84;;;-0.59;81.19
52927;BME280;40783;49.710;8.842;2023-04-04T03:06:49;100052.56;;;-0.53;80.99
52927;BME280;40783;49.710;8.842;2023-04-04T03:09:14;100048.63;;;-0.63;81.43
52927;BME280;40783;49.710;8.842;2023-04-04T03:11:40;100056.66;;;-0.66;82.27
52927;BME280;40783;49.710;8.842;2023-04-04T03:14:07;100049.44;;;-0.61;82.19
52927;BME280;40783;49.710;8.842;2023-04-04T03:16:35;100056.69;;;-0.68;82.77
52927;BME280;40783;49.710;8.842;2023-04-04T03:19:00;100059.53;;;-0.52;81.32
52927;BME280;40783;49.710;8.842;2023-04-04T03:21:26;100049.44;;;-0.61;80.90
52927;BME280;40783;49.710;8.842;2023-04-04T03:23:53;100051.00;;;-0.57;81.26
52927;BME280;40783;49.710;8.842;2023-04-04T03:26:19;100052.84;;;-0.59;81.89
52927;BME280;40783;49.710;8.842;2023-04-04T03:28:46;100043.44;;;-0.44;81.16
52927;BME280;40783;49.710;8.842;2023-04-04T03:31:17;100048.34;;;-0.78;83.01
52927;BME280;40783;49.710;8.842;2023-04-04T03:33:42;100051.25;;;-0.63;82.18
52927;BME280;40783;49.710;8.842;2023-04-04T03:36:11;100040.50;;;-0.57;82.09
52927;BME280;40783;49.710;8.842;2023-04-04T03:38:37;100047.59;;;-0.59;81.85
52927;BME280;40783;49.710;8.842;2023-04-04T03:41:03;100040.50;;;-0.57;82.11
52927;BME280;40783;49.710;8.842;2023-04-04T03:43:32;100031.09;;;-0.63;81.93
52927;BME280;40783;49.710;8.842;2023-04-04T03:46:01;100037.50;;;-0.70;82.65
52927;BME280;40783;49.710;8.842;2023-04-04T03:48:27;100044.31;;;-0.64;82.19
52927;BME280;40783;49.710;8.842;2023-04-04T03:50:52;100045.41;;;-0.70;82.52
52927;BME280;40783;49.710;8.842;2023-04-04T03:53:17;100038.19;;;-0.65;82.46
52927;BME280;40783;49.710;8.842;2023-04-04T03:55:47;100053.34;;;-0.71;82.30
52927;BME280;40783;49.710;8.842;2023-04-04T03:58:15;100039.31;;;-0.70;82.84
52927;BME280;40783;49.710;8.842;2023-04-04T04:00:40;100043.16;;;-0.79;83.08
52927;BME280;40783;49.710;8.842;2023-04-04T04:03:11;100039.69;;;-0.80;84.20
52927;BME280;40783;49.710;8.842;2023-04-04T04:05:36;100042.19;;;-0.77;84.11
52927;BME280;40783;49.710;8.842;2023-04-04T04:08:04;100043.22;;;-0.81;83.83
52927;BME280;40783;49.710;8.842;2023-04-04T04:10:32;100045.19;;;-0.86;84.69
52927;BME280;40783;49.710;8.842;2023-04-04T04:12:58;100043.47;;;-0.87;85.69
52927;BME280;40783;49.710;8.842;2023-04-04T04:15:23;100038.47;;;-0.93;86.28
52927;BME280;40783;49.710;8.842;2023-04-04T04:17:49;100049.59;;;-0.86;85.35
52927;BME280;40783;49.710;8.842;2023-04-04T04:20:14;100037.63;;;-0.94;85.42
52927;BME280;40783;49.710;8.842;2023-04-04T04:22:45;100049.22;;;-0.99;85.82
52927;BME280;40783;49.710;8.842;2023-04-04T04:25:14;100035.06;;;-0.95;85.91
52927;BME280;40783;49.710;8.842;2023-04-04T04:27:40;100040.06;;;-0.89;85.61
52927;BME280;40783;49.710;8.842;2023-04-04T04:30:09;100042.63;;;-0.87;85.58
52927;BME280;40783;49.710;8.842;2023-04-04T04:32:34;100035.44;;;-0.82;85.51
52927;BME280;40783;49.710;8.842;2023-04-04T04:35:02;100035.56;;;-0.85;85.97
52927;BME280;40783;49.710;8.842;2023-04-04T04:37:27;100041.50;;;-0.82;84.98
52927;BME280;40783;49.710;8.842;2023-04-04T04:39:55;100045.31;;;-0.89;85.58
52927;BME280;40783;49.710;8.842;2023-04-04T04:42:21;100037.94;;;-1.01;86.15
52927;BME280;40783;49.710;8.842;2023-04-04T04:44:46;100040.44;;;-0.98;86.12
52927;BME280;40783;49.710;8.842;2023-04-04T04:47:11;100040.09;;;-1.11;86.53
52927;BME280;40783;49.710;8.842;2023-04-04T04:49:39;100050.81;;;-1.17;88.29
52927;BME280;40783;49.710;8.842;2023-04-04T04:52:08;100035.38;;;-1.03;87.07
52927;BME280;40783;49.710;8.842;2023-04-04T04:54:34;100043.38;;;-1.06;88.23
52927;BME280;40783;49.710;8.842;2023-04-04T04:57:01;100042.53;;;-1.07;87.27
52927;BME280;40783;49.710;8.842;2023-04-04T04:59:26;100045.81;;;-1.01;86.30
52927;BME280;40783;49.710;8.842;2023-04-04T05:01:52;100046.84;;;-1.06;87.03
52927;BME280;40783;49.710;8.842;2023-04-04T05:04:17;100045.09;;;-1.05;87.00
52927;BME280;40783;49.710;8.842;2023-04-04T05:06:45;100049.34;;;-1.02;86.86
52927;BME280;40783;49.710;8.842;2023-04-04T05:09:15;100050.94;;;-0.98;86.82
52927;BME280;40783;49.710;8.842;2023-04-04T05:11:40;100042.13;;;-0.97;86.73
52927;BME280;40783;49.710;8.842;2023-04-04T05:14:08;100043.25;;;-1.03;87.44
52927;BME280;40783;49.710;8.842;2023-04-04T05:16:33;100051.84;;;-0.99;87.34
52927;BME280;40783;49.710;8.842;2023-04-04T05:18:58;100050.81;;;-0.95;86.56
52927;BME280;40783;49.710;8.842;2023-04-04T05:21:24;100061.06;;;-0.89;86.24
52927;BME280;40783;49.710;8.842;2023-04-04T05:23:51;100049.81;;;-0.70;85.13
52927;BME280;40783;49.710;8.842;2023-04-04T05:26:17;100057.34;;;-0.63;85.25
52927;BME280;40783;49.710;8.842;2023-04-04T05:28:47;100062.94;;;-0.50;84.93
52927;BME280;40783;49.710;8.842;2023-04-04T05:31:12;100057.25;;;-0.39;84.08
52927;BME280;40783;49.710;8.842;2023-04-04T05:33:38;100053.50;;;-0.33;84.46
52927;BME280;40783;49.710;8.842;2023-04-04T05:36:03;100052.56;;;-0.32;83.62
52927;BME280;40783;49.710;8.842;2023-04-04T05:38:31;100058.88;;;-0.36;83.86
52927;BME280;40783;49.710;8.842;2023-04-04T05:40:58;100059.13;;;-0.42;84.86
52927;BME280;40783;49.710;8.842;2023-04-04T05:43:23;100062.16;;;-0.31;84.30
52927;BME280;40783;49.710;8.842;2023-04-04T05:45:48;100056.78;;;-0.28;83.64
52927;BME280;40783;49.710;8.842;2023-04-04T05:48:16;100057.94;;;-0.14;83.57
52927;BME280;40783;49.710;8.842;2023-04-04T05:50:44;100059.25;;;-0.04;83.25
52927;BME280;40783;49.710;8.842;2023-04-04T05:53:13;100066.66;;;0.07;83.04
52927;BME280;40783;49.710;8.842;2023-04-04T05:55:41;100053.03;;;0.18;82.11
52927;BME280;40783;49.710;8.842;2023-04-04T05:58:09;100054.19;;;0.31;82.04
52927;BME280;40783;49.710;8.842;2023-04-04T06:00:38;100058.44;;;0.34;82.13
52927;BME280;40783;49.710;8.842;2023-04-04T06:03:08;100057.56;;;0.71;79.88
52927;BME280;40783;49.710;8.842;2023-04-04T06:05:34;100051.00;;;0.99;78.87
52927;BME280;40783;49.710;8.842;2023-04-04T06:08:00;100046.66;;;1.16;77.47
52927;BME280;40783;49.710;8.842;2023-04-04T06:10:25;100058.59;;;1.06;78.38
52927;BME280;40783;49.710;8.842;2023-04-04T06:12:53;100058.41;;;0.91;78.29
52927;BME280;40783;49.710;8.842;2023-04-04T06:15:20;100056.44;;;0.77;78.52
52927;BME280;40783;49.710;8.842;2023-04-04T06:17:45;100058.22;;;0.38;81.06
52927;BME280;40783;49.710;8.842;2023-04-04T06:20:15;100063.25;;;0.05;82.75
52927;BME280;40783;49.710;8.842;2023-04-04T06:22:43;100057.56;;;-0.05;83.53
52927;BME280;40783;49.710;8.842;2023-04-04T06:25:08;100067.38;;;0.10;84.96
52927;BME280;40783;49.710;8.842;2023-04-04T06:27:37;100069.78;;;-0.04;84.38
52927;BME280;40783;49.710;8.842;2023-04-04T06:30:02;100071.69;;;0.11;83.38
52927;BME280;40783;49.710;8.842;2023-04-04T06:32:30;100066.69;;;0.26;82.85
52927;BME280;40783;49.710;8.842;2023-04-04T06:34:58;100073.88;;;0.41;82.56
52927;BME280;40783;49.710;8.842;2023-04-04T06:37:26;100064.09;;;0.82;80.56
52927;BME280;40783;49.710;8.842;2023-04-04T06:39:51;100064.59;;;1.27;78.28
52927;BME280;40783;49.710;8.842;2023-04-04T06:42:20;100076.91;;;1.79;76.95
52927;BME280;40783;49.710;8.842;2023-04-04T06:44:45;100069.13;;;1.93;75.86
52927;BME280;40783;49.710;8.842;2023-04-04T06:47:10;100067.56;;;1.89;75.21
52927;BME280;40783;49.710;8.842;2023-04-04T06:49:36;100066.81;;;1.87;75.71
52927;BME280;40783;49.710;8.842;2023-04-04T06:52:01;100066.81;;;2.21;73.83
52927;BME280;40783;49.710;8.842;2023-04-04T06:54:28;100073.09;;;2.18;73.07
52927;BME280;40783;49.710;8.842;2023-04-04T06:56:54;100070.41;;;2.36;72.74
52927;BME280;40783;49.710;8.842;2023-04-04T06:59:19;100068.50;;;2.22;74.08
52927;BME280;40783;49.710;8.842;2023-04-04T07:01:47;100070.06;;;2.42;74.26
52927;BME280;40783;49.710;8.842;2023-04-04T07:04:12;100067.00;;;2.66;72.28
52927;BME280;40783;49.710;8.842;2023-04-04T07:06:40;100062.44;;;2.70;71.86
52927;BME280;40783;49.710;8.842;2023-04-04T07:09:06;100060.53;;;2.88;70.48
52927;BME280;40783;49.710;8.842;2023-04-04T07:11:31;100066.00;;;2.85;69.03
52927;BME280;40783;49.710;8.842;2023-04-04T07:13:59;100064.13;;;2.87;68.22
52927;BME280;40783;49.710;8.842;2023-04-04T07:16:24;100066.16;;;2.81;69.31
52927;BME280;40783;49.710;8.842;2023-04-04T07:18:50;100067.88;;;2.82;67.21
52927;BME280;40783;49.710;8.842;2023-04-04T07:21:15;100062.94;;;3.23;68.29
52927;BME280;40783;49.710;8.842;2023-04-04T07:23:45;100066.69;;;2.88;66.29
52927;BME280;40783;49.710;8.842;2023-04-04T07:26:12;100064.28;;;2.67;64.75
52927;BME280;40783;49.710;8.842;2023-04-04T07:28:40;100063.78;;;2.93;61.97
52927;BME280;40783;49.710;8.842;2023-04-04T07:31:05;100062.75;;;2.79;64.67
52927;BME280;40783;49.710;8.842;2023-04-04T07:33:30;100063.88;;;3.22;62.63
52927;BME280;40783;49.710;8.842;2023-04-04T07:35:56;100063.63;;;3.57;64.13
52927;BME280;40783;49.710;8.842;2023-04-04T07:38:21;100065.75;;;3.36;61.82
52927;BME280;40783;49.710;8.842;2023-04-04T07:40:50;100058.25;;;3.28;60.38
52927;BME280;40783;49.710;8.842;2023-04-04T07:43:17;100054.78;;;2.65;61.81
52927;BME280;40783;49.710;8.842;2023-04-04T07:45:45;100059.69;;;2.71;63.45
52927;BME280;40783;49.710;8.842;2023-04-04T07:48:10;100050.81;;;2.40;62.97
52927;BME280;40783;49.710;8.842;2023-04-04T07:50:36;100052.59;;;2.40;63.03
52927;BME280;40783;49.710;8.842;2023-04-04T07:53:03;100056.44;;;2.50;63.17
52927;BME280;40783;49.710;8.842;2023-04-04T07:55:31;100049.88;;;2.41;59.92
52927;BME280;40783;49.710;8.842;2023-04-04T07:57:56;100039.75;;;2.49;60.71
52927;BME280;40783;49.710;8.842;2023-04-04T08:00:22;100048.78;;;2.29;61.21
52927;BME280;40783;49.710;8.842;2023-04-04T08:02:51;100050.81;;;2.40;59.35
52927;BME280;40783;49.710;8.842;2023-04-04T08:05:17;100037.19;;;2.48;57.92
52927;BME280;40783;49.710;8.842;2023-04-04T08:07:43;100037.28;;;2.78;60.26
52927;BME280;40783;49.710;8.842;2023-04-04T08:10:08;100042.22;;;2.85;59.07
52927;BME280;40783;49.710;8.842;2023-04-04T08:12:37;100041.63;;;2.79;57.64
52927;BME280;40783;49.710;8.842;2023-04-04T08:15:02;100040.09;;;2.91;56.93
52927;BME280;40783;49.710;8.842;2023-04-04T08:17:30;100033.59;;;2.97;55.96
52927;BME280;40783;49.710;8.842;2023-04-04T08:19:55;100052.53;;;2.73;55.92
52927;BME280;40783;49.710;8.842;2023-04-04T08:22:22;100040.84;;;2.77;53.73
52927;BME280;40783;49.710;8.842;2023-04-04T08:24:48;100041.44;;;2.82;54.43
52927;BME280;40783;49.710;8.842;2023-04-04T08:27:13;100037.88;;;2.84;55.08
52927;BME280;40783;49.710;8.842;2023-04-04T08:29:41;100047.06;;;2.92;55.34
52927;BME280;40783;49.710;8.842;2023-04-04T08:32:07;100047.06;;;2.76;54.98
52927;BME280;40783;49.710;8.842;2023-04-04T08:34:34;100048.44;;;2.84;53.56
52927;BME280;40783;49.710;8.842;2023-04-04T08:36:59;100052.34;;;2.92;53.73
52927;BME280;40783;49.710;8.842;2023-04-04T08:39:28;100048.78;;;2.77;52.67
52927;BME280;40783;49.710;8.842;2023-04-04T08:42:03;100048.25;;;2.87;53.87
52927;BME280;40783;49.710;8.842;2023-04-04T08:44:32;100051.50;;;2.92;52.53
52927;BME280;40783;49.710;8.842;2023-04-04T08:47:02;100040.41;;;3.01;51.91
52927;BME280;40783;49.710;8.842;2023-04-04T08:49:37;100038.97;;;3.26;53.38
52927;BME280;40783;49.710;8.842;2023-04-04T08:52:04;100054.63;;;3.15;52.91
52927;BME280;40783;49.710;8.842;2023-04-04T08:54:33;100048.84;;;3.38;52.87
52927;BME280;40783;49.710;8.842;2023-04-04T08:57:01;100041.03;;;3.21;52.05
52927;BME280;40783;49.710;8.842;2023-04-04T08:59:28;100044.09;;;3.29;51.44
52927;BME280;40783;49.710;8.842;2023-04-04T09:02:04;100042.47;;;3.57;50.91
52927;BME280;40783;49.710;8.842;2023-04-04T09:04:41;100037.31;;;3.39;51.45
52927;BME280;40783;49.710;8.842;2023-04-04T09:07:08;100039.16;;;3.53;53.84
52927;BME280;40783;49.710;8.842;2023-04-04T09:09:36;100036.38;;;3.40;51.06
52927;BME280;40783;49.710;8.842;2023-04-04T09:12:06;100045.84;;;3.45;50.94
52927;BME280;40783;49.710;8.842;2023-04-04T09:14:35;100048.84;;;3.38;50.23
52927;BME280;40783;49.710;8.842;2023-04-04T09:17:02;100038.81;;;3.29;52.15
52927;BME280;40783;49.710;8.842;2023-04-04T09:19:30;100032.81;;;3.41;50.95
52927;BME280;40783;49.710;8.842;2023-04-04T09:21:56;100033.03;;;3.53;50.16
52927;BME280;40783;49.710;8.842;2023-04-04T09:24:22;100037.56;;;3.51;51.41
52927;BME280;40783;49.710;8.842;2023-04-04T09:26:48;100047.94;;;3.54;49.53
52927;BME280;40783;49.710;8.842;2023-04-04T09:29:21;100038.56;;;3.34;49.44
52927;BME280;40783;49.710;8.842;2023-04-04T09:31:47;100026.00;;;3.37;49.81
52927;BME280;40783;49.710;8.842;2023-04-04T09:34:17;100031.09;;;3.40;50.06
52927;BME280;40783;49.710;8.842;2023-04-04T09:36:46;100029.03;;;3.46;50.51
52927;BME280;40783;49.710;8.842;2023-04-04T09:39:17;100036.03;;;3.47;50.22
52927;BME280;40783;49.710;8.842;2023-04-04T09:41:48;100027.78;;;3.67;50.34
52927;BME280;40783;49.710;8.842;2023-04-04T09:44:15;100027.56;;;3.56;49.69
52927;BME280;40783;49.710;8.842;2023-04-04T09:46:42;100033.59;;;3.58;50.65
52927;BME280;40783;49.710;8.842;2023-04-04T09:49:11;100034.09;;;3.79;50.92
52927;BME280;40783;49.710;8.842;2023-04-04T09:51:50;100030.59;;;3.79;49.52
52927;BME280;40783;49.710;8.842;2023-04-04T09:54:20;100039.88;;;4.00;51.84
52927;BME280;40783;49.710;8.842;2023-04-04T09:56:46;100030.97;;;3.72;51.33
52927;BME280;40783;49.710;8.842;2023-04-04T09:59:12;100033.41;;;3.76;49.20
52927;BME280;40783;49.710;8.842;2023-04-04T10:01:41;100029.47;;;3.97;48.76
52927;BME280;40783;49.710;8.842;2023-04-04T10:04:07;100023.63;;;4.07;49.76
52927;BME280;40783;49.710;8.842;2023-04-04T10:06:36;100025.50;;;4.05;49.34
52927;BME280;40783;49.710;8.842;2023-04-04T10:09:02;100025.69;;;4.01;49.80
52927;BME280;40783;49.710;8.842;2023-04-04T10:11:32;100024.38;;;3.94;50.69
52927;BME280;40783;49.710;8.842;2023-04-04T10:14:02;100029.28;;;4.00;48.93
52927;BME280;40783;49.710;8.842;2023-04-04T10:16:33;100027.59;;;3.99;49.52
52927;BME280;40783;49.710;8.842;2023-04-04T10:19:03;100019.84;;;4.11;50.19
52927;BME280;40783;49.710;8.842;2023-04-04T10:21:28;100026.63;;;4.29;50.82
52927;BME280;40783;49.710;8.842;2023-04-04T10:23:54;100015.38;;;4.40;51.66
52927;BME280;40783;49.710;8.842;2023-04-04T10:26:22;100015.44;;;4.53;52.49
52927;BME280;40783;49.710;8.842;2023-04-04T10:28:50;100015.44;;;4.53;50.22
52927;BME280;40783;49.710;8.842;2023-04-04T10:31:23;100002.56;;;4.47;50.38
52927;BME280;40783;49.710;8.842;2023-04-04T10:34:06;100008.44;;;4.52;50.87
52927;BME280;40783;49.710;8.842;2023-04-04T10:36:53;100016.34;;;4.67;50.71
52927;BME280;40783;49.710;8.842;2023-04-04T10:39:31;100020.78;;;4.10;50.01
52927;BME280;40783;49.710;8.842;2023-04-04T10:41:59;100012.66;;;4.13;50.99
52927;BME280;40783;49.710;8.842;2023-04-04T10:44:39;100011.22;;;4.07;51.16
52927;BME280;40783;49.710;8.842;2023-04-04T10:47:13;100016.22;;;4.26;49.95
52927;BME280;40783;49.710;8.842;2023-04-04T10:49:43;100009.00;;;4.43;49.52
52927;BME280;40783;49.710;8.842;2023-04-04T10:52:13;100008.22;;;4.55;51.83
52927;BME280;40783;49.710;8.842;2023-04-04T10:54:40;100009.34;;;4.66;50.43
52927;BME280;40783;49.710;8.842;2023-04-04T10:57:09;100012.41;;;4.45;50.32
52927;BME280;40783;49.710;8.842;2023-04-04T11:05:30;100001.44;;;4.51;50.62
52927;BME280;40783;49.710;8.842;2023-04-04T11:08:04;99997.38;;;4.45;49.84
52927;BME280;40783;49.710;8.842;2023-04-04T11:10:32;99996.31;;;4.48;51.02
52927;BME280;40783;49.710;8.842;2023-04-04T11:13:01;99986.31;;;4.39;49.04
52927;BME280;40783;49.710;8.842;2023-04-04T11:21:08;99971.22;;;4.81;51.50
52927;BME280;40783;49.710;8.842;2023-04-04T11:34:14;99970.63;;;4.90;49.49
52927;BME280;40783;49.710;8.842;2023-04-04T11:36:53;99963.88;;;4.99;48.79
52927;BME280;40783;49.710;8.842;2023-04-04T11:42:06;99961.31;;;4.98;48.15
52927;BME280;40783;49.710;8.842;2023-04-04T11:44:40;99951.47;;;5.00;49.47
52927;BME280;40783;49.710;8.842;2023-04-04T11:49:42;99957.31;;;5.05;49.80
52927;BME280;40783;49.710;8.842;2023-04-04T11:52:11;99938.41;;;4.97;49.38
52927;BME280;40783;49.710;8.842;2023-04-04T11:54:38;99942.69;;;4.99;48.62
52927;BME280;40783;49.710;8.842;2023-04-04T11:57:10;99947.59;;;5.18;49.59
52927;BME280;40783;49.710;8.842;2023-04-04T11:59:38;99939.22;;;5.50;49.20
52927;BME280;40783;49.710;8.842;2023-04-04T12:02:04;99944.09;;;5.57;47.84
52927;BME280;40783;49.710;8.842;2023-04-04T12:04:30;99939.50;;;5.33;47.67
52927;BME280;40783;49.710;8.842;2023-04-04T12:06:57;99938.47;;;5.48;47.53
52927;BME280;40783;49.710;8.842;2023-04-04T12:09:24;99929.56;;;5.49;47.21
52927;BME280;40783;49.710;8.842;2023-04-04T12:11:53;99934.00;;;5.62;48.10
52927;BME280;40783;49.710;8.842;2023-04-04T12:14:24;99919.56;;;5.66;48.91
52927;BME280;40783;49.710;8.842;2023-04-04T12:16:54;99921.88;;;5.84;48.38
52927;BME280;40783;49.710;8.842;2023-04-04T12:19:24;99920.63;;;5.76;47.44
52927;BME280;40783;49.710;8.842;2023-04-04T12:21:51;99925.63;;;5.68;46.99
52927;BME280;40783;49.710;8.842;2023-04-04T12:24:17;99927.00;;;5.61;46.86
52927;BME280;40783;49.710;8.842;2023-04-04T12:26:45;99925.31;;;5.60;46.90
52927;BME280;40783;49.710;8.842;2023-04-04T12:29:12;99919.78;;;5.63;48.97
52927;BME280;40783;49.710;8.842;2023-04-04T12:31:38;99913.84;;;5.72;47.73
52927;BME280;40783;49.710;8.842;2023-04-04T12:34:04;99900.25;;;5.64;46.63
52927;BME280;40783;49.710;8.842;2023-04-04T12:36:30;99911.91;;;5.61;46.73
52927;BME280;40783;49.710;8.842;2023-04-04T12:38:59;99895.81;;;5.52;47.92
52927;BME280;40783;49.710;8.842;2023-04-04T12:41:25;99895.91;;;5.63;46.51
52927;BME280;40783;49.710;8.842;2023-04-04T12:43:57;99887.91;;;5.76;46.83
52927;BME280;40783;49.710;8.842;2023-04-04T12:46:25;99895.09;;;5.87;47.54
52927;BME280;40783;49.710;8.842;2023-04-04T12:48:53;99886.81;;;6.04;46.70
52927;BME280;40783;49.710;8.842;2023-04-04T12:51:19;99892.13;;;6.04;47.43
52927;BME280;40783;49.710;8.842;2023-04-04T12:53:51;99887.44;;;5.95;45.68
52927;BME280;40783;49.710;8.842;2023-04-04T12:56:27;99891.81;;;5.96;46.10
52927;BME280;40783;49.710;8.842;2023-04-04T12:58:52;99887.66;;;5.92;45.32
52927;BME280;40783;49.710;8.842;2023-04-04T13:01:19;99882.69;;;6.00;45.89
52927;BME280;40783;49.710;8.842;2023-04-04T13:03:47;99878.75;;;5.93;45.83
52927;BME280;40783;49.710;8.842;2023-04-04T13:06:16;99885.03;;;6.05;45.63
52927;BME280;40783;49.710;8.842;2023-04-04T13:08:51;99883.22;;;6.05;46.77
52927;BME280;40783;49.710;8.842;2023-04-04T13:11:17;99873.53;;;6.04;45.81
52927;BME280;40783;49.710;8.842;2023-04-04T13:13:43;99881.66;;;6.27;46.49
52927;BME280;40783;49.710;8.842;2023-04-04T13:16:34;99884.63;;;6.22;46.57
52927;BME280;40783;49.710;8.842;2023-04-04T13:19:01;99875.53;;;6.14;45.52
52927;BME280;40783;49.710;8.842;2023-04-04T13:21:27;99873.41;;;6.19;45.92
52927;BME280;40783;49.710;8.842;2023-04-04T13:23:53;99870.44;;;6.11;45.10
52927;BME280;40783;49.710;8.842;2023-04-04T13:26:21;99866.00;;;5.98;45.82
52927;BME280;40783;49.710;8.842;2023-04-04T13:28:46;99853.25;;;6.03;46.12
52927;BME280;40783;49.710;8.842;2023-04-04T13:31:14;99861.53;;;6.12;45.53